Météo Nord-Pas-de-Calais   La météo au plus près de chez vous

Station météorologique

Observations météo à Auxerre-Perrigny (89295)

89295001 152 m Dernier relevé à 13:18
23.4°C
Humidité 56 % Vent 6.1 km/h 1022.4 hPa

Journée consultée

Mardi 1 Septembre 2026

Synthèse de la journée

Périodes de référence en UTC

Température maximale

23.4°C

à 13:18

06h 06h

Température minimale

11.8°C

à 07:00

18h 18h

Rafale maximale

23 km/h

à 13:18

00h 00h

Précipitations

0 mm

Cumul quotidien

06h 06h

Ensoleillement

5h 12 mins

Durée quotidienne

00h 00h

Graphiques de la journée

Heure locale Réduire

Données détaillées

Relevés météo

Pas de 6 minutes Afficher les relevés infra-horaires
Relevés météo détaillés à Auxerre-Perrigny pour le Mardi 1 Septembre 2026
Heure Température °C Point de rosée °C Humidité % Vent moyen (raf.), km/h Précipitations mm Température à 10 cm °C Température à 20 cm °C Température à 50 cm °C Température à 100 cm °C Visibilité m État du sol   Hauteur neige cm Ensoleillement min Rayonnement global W/m² Pression hPa
13:18 23.4 °C 13 °C 52 % 10 km/h (23 km/h) 0 mm0 mm 21.5 °C 20.9 °C 21.4 °C 21.8 °C 20000 m 0   0 cm 6 min 270.3 W/m² 1022.1 hPa
13:12 23.3 °C 12.9 °C 52 % 7 km/h (13 km/h) 0 mm0 mm 21.4 °C 20.8 °C 21.4 °C 21.8 °C 20000 m 0   0 cm 6 min 280.7 W/m² 1022.1 hPa
13:06 23.1 °C 12.7 °C 52 % 8 km/h (14 km/h) 0 mm0 mm 21.3 °C 20.7 °C 21.4 °C 21.8 °C 20000 m 0   0 cm 6 min 269.9 W/m² 1022.1 hPa
13:00 22.8 °C 12.4 °C 52 % 9 km/h (15 km/h) 0 mm0 mm 21.2 °C 20.6 °C 21.4 °C 21.8 °C 20000 m 0   0 cm 6 min 264.2 W/m² 1022.2 hPa
12:54 22.9 °C 12.8 °C 53 % 7 km/h (14 km/h) 0 mm0 mm 21 °C 20.6 °C 21.4 °C 21.8 °C 20000 m 0   0 cm 6 min 254.8 W/m² 1022.1 hPa
12:48 22.4 °C 12.6 °C 54 % 6 km/h (14 km/h) 0 mm0 mm 20.9 °C 20.5 °C 21.4 °C 21.8 °C 20000 m 0   0 cm 6 min 261.3 W/m² 1022.3 hPa
12:42 22.4 °C 12.6 °C 54 % 5 km/h (10 km/h) 0 mm0 mm 20.8 °C 20.4 °C 21.4 °C 21.8 °C 20000 m 0   0 cm 6 min 232.8 W/m² 1022.3 hPa
12:36 22.2 °C 13 °C 56 % 5 km/h (10 km/h) 0 mm0 mm 20.7 °C 20.3 °C 21.4 °C 21.8 °C 20000 m 0   0 cm 6 min 229.2 W/m² 1022.4 hPa
12:30 22.2 °C 12.7 °C 55 % 5 km/h (9 km/h) 0 mm0 mm 20.6 °C 20.2 °C 21.5 °C 21.8 °C 20000 m 0   0 cm 6 min 235.8 W/m² 1022.3 hPa
12:24 21.8 °C 12.9 °C 57 % 5 km/h (10 km/h) 0 mm0 mm 20.5 °C 20.2 °C 21.5 °C 21.9 °C 20000 m 0   0 cm 6 min 225.8 W/m² 1022.3 hPa
12:18 21.9 °C 12.7 °C 56 % 6 km/h (10 km/h) 0 mm0 mm 20.4 °C 20.1 °C 21.5 °C 21.8 °C 20000 m 0   0 cm 6 min 246.1 W/m² 1022.4 hPa
12:12 22.2 °C 13 °C 56 % 5 km/h (10 km/h) 0 mm0 mm 20.3 °C 20 °C 21.5 °C 21.8 °C 20000 m 0   0 cm 6 min 247.9 W/m² 1022.5 hPa
12:06 22 °C 12.5 °C 55 % 5 km/h (9 km/h) 0 mm0 mm 20.2 °C 19.9 °C 21.5 °C 21.8 °C 20000 m 0   0 cm 6 min 253.5 W/m² 1022.5 hPa
12:00 21.9 °C 12.7 °C 56 % 4 km/h (9 km/h) 0 mm0 mm 20.1 °C 19.9 °C 21.5 °C 21.8 °C 20000 m 0   0 cm 6 min 240.2 W/m² 1022.5 hPa
11:54 21.8 °C 12.4 °C 55 % 4 km/h (8 km/h) 0 mm0 mm 20 °C 19.8 °C 21.5 °C 21.8 °C 20000 m 0   0 cm 6 min 233.6 W/m² 1022.6 hPa
11:48 21.1 °C 12 °C 56 % 4 km/h (8 km/h) 0 mm0 mm 20 °C 19.8 °C 21.5 °C 21.8 °C 20000 m 0   0 cm 5 min 187.1 W/m² 1022.6 hPa
11:42 21 °C 12.2 °C 57 % 4 km/h (10 km/h) 0 mm0 mm 19.9 °C 19.7 °C 21.5 °C 21.8 °C 20000 m 0   0 cm 1 min 152.6 W/m² 1022.6 hPa
11:36 20.8 °C 12 °C 57 % 4 km/h (10 km/h) 0 mm0 mm 19.8 °C 19.6 °C 21.5 °C 21.8 °C 20000 m 0   0 cm 4 min 163.6 W/m² 1022.6 hPa
11:30 20.8 °C 12 °C 57 % 5 km/h (9 km/h) 0 mm0 mm 19.7 °C 19.6 °C 21.5 °C 21.8 °C 20000 m 0   0 cm 6 min 214.4 W/m² 1022.6 hPa
11:24 20.8 °C 12.7 °C 60 % 5 km/h (8 km/h) 0 mm0 mm 19.6 °C 19.5 °C 21.5 °C 21.8 °C 20000 m 0   0 cm 6 min 227.1 W/m² 1022.7 hPa
11:18 20.6 °C 13.1 °C 62 % 4 km/h (8 km/h) 0 mm0 mm 19.5 °C 19.5 °C 21.5 °C 21.8 °C 20000 m 0   0 cm 6 min 216.8 W/m² 1022.6 hPa
11:12 20.6 °C 13.3 °C 63 % 3 km/h (7 km/h) 0 mm0 mm 19.4 °C 19.4 °C 21.5 °C 21.8 °C 20000 m 0   0 cm 6 min 204.2 W/m² 1022.6 hPa
11:06 20.1 °C 13.3 °C 65 % 4 km/h (8 km/h) 0 mm0 mm 19.3 °C 19.3 °C 21.5 °C 21.8 °C 20000 m 0   0 cm 6 min 177.4 W/m² 1022.6 hPa
11:00 19.9 °C 13.4 °C 66 % 3 km/h (8 km/h) 0 mm0 mm 19.2 °C 19.3 °C 21.6 °C 21.9 °C 20000 m 0   0 cm 6 min 167.5 W/m² 1022.6 hPa
10:54 19.6 °C 13.3 °C 67 % 3 km/h (7 km/h) 0 mm0 mm 19.2 °C 19.2 °C 21.6 °C 21.8 °C 20000 m 0   0 cm 6 min 160.1 W/m² 1022.7 hPa
10:48 19.5 °C 13.7 °C 69 % 3 km/h (6 km/h) 0 mm0 mm 19.1 °C 19.2 °C 21.6 °C 21.8 °C 20000 m 0   0 cm 4 min 143.9 W/m² 1022.7 hPa
10:42 19.1 °C 13.5 °C 70 % 3 km/h (7 km/h) 0 mm0 mm 19 °C 19.1 °C 21.6 °C 21.8 °C 20000 m 0   0 cm 2 min 131.7 W/m² 1022.7 hPa
10:36 19.2 °C 13.4 °C 69 % 4 km/h (8 km/h) 0 mm0 mm 18.9 °C 19.1 °C 21.6 °C 21.9 °C 20000 m 0   0 cm 6 min 181.3 W/m² 1022.7 hPa
10:30 18.8 °C 13.2 °C 70 % 4 km/h (8 km/h) 0 mm0 mm 18.9 °C 19.1 °C 21.6 °C 21.9 °C 20000 m 0   0 cm 6 min 161.1 W/m² 1022.7 hPa
10:24 18.7 °C 13.1 °C 70 % 4 km/h (8 km/h) 0 mm0 mm 18.8 °C 19 °C 21.6 °C 21.8 °C 20000 m 0   0 cm 6 min 151.8 W/m² 1022.7 hPa
10:18 18.5 °C 12.9 °C 70 % 4 km/h (6 km/h) 0 mm0 mm 18.7 °C 19 °C 21.6 °C 21.8 °C 20000 m 0   0 cm 6 min 151.9 W/m² 1022.6 hPa
10:12 18.3 °C 12.9 °C 71 % 4 km/h (6 km/h) 0 mm0 mm 18.7 °C 19 °C 21.6 °C 21.9 °C 20000 m 0   0 cm 6 min 131.5 W/m² 1022.5 hPa
10:06 18.4 °C 13 °C 71 % 4 km/h (8 km/h) 0 mm0 mm 18.6 °C 19 °C 21.6 °C 21.8 °C 20000 m 0   0 cm 6 min 167.9 W/m² 1022.5 hPa
10:00 18.2 °C 13.1 °C 72 % 5 km/h (9 km/h) 0 mm0 mm 18.5 °C 18.9 °C 21.6 °C 21.8 °C 20000 m 0   0 cm 6 min 161.5 W/m² 1022.5 hPa
09:54 18.2 °C 13.1 °C 72 % 4 km/h (6 km/h) 0 mm0 mm 18.5 °C 18.9 °C 21.6 °C 21.8 °C 20000 m 0   0 cm 6 min 147.3 W/m² 1022.5 hPa
09:48 18.3 °C 12.7 °C 70 % 3 km/h (7 km/h) 0 mm0 mm 18.5 °C 18.9 °C 21.7 °C 21.9 °C 20000 m 0   0 cm 6 min 140.5 W/m² 1022.4 hPa
09:42 18.7 °C 13.5 °C 72 % 0 km/h (3 km/h) 0 mm0 mm 18.4 °C 18.9 °C 21.6 °C 21.8 °C 20000 m 0   0 cm 6 min 137.5 W/m² 1022.4 hPa
09:36 18.4 °C 12.8 °C 70 % 0 km/h (5 km/h) 0 mm0 mm 18.4 °C 18.9 °C 21.7 °C 21.9 °C 20000 m 0   0 cm 6 min 127.6 W/m² 1022.3 hPa
09:30 18.1 °C 13.2 °C 73 % 2 km/h (5 km/h) 0 mm0 mm 18.4 °C 18.9 °C 21.6 °C 21.9 °C 20000 m 0   0 cm 6 min 125.3 W/m² 1022.2 hPa
09:24 17.7 °C 14 °C 79 % 0 km/h (4 km/h) 0 mm0 mm 18.4 °C 18.9 °C 21.7 °C 21.9 °C 20000 m 0   0 cm 6 min 119.4 W/m² 1022.3 hPa
09:18 16.5 °C 13.8 °C 84 % 0 km/h (3 km/h) 0 mm0 mm 18.4 °C 18.9 °C 21.7 °C 21.8 °C 20000 m 0   0 cm 6 min 115 W/m² 1022.3 hPa
09:12 15.7 °C 14.1 °C 90 % 0 km/h (3 km/h) 0 mm0 mm 18.3 °C 18.9 °C 21.7 °C 21.9 °C 20000 m 0   0 cm 6 min 110.9 W/m² 1022.4 hPa
09:06 14.8 °C 13.7 °C 93 % 2 km/h (4 km/h) 0 mm0 mm 18.3 °C 18.9 °C 21.7 °C 21.8 °C 20000 m 0   0 cm 6 min 106.2 W/m² 1022.3 hPa
09:00 14.2 °C 12.9 °C 92 % 3 km/h (4 km/h) 0 mm0 mm 18.3 °C 18.9 °C 21.7 °C 21.9 °C 20000 m 0   0 cm 6 min 94 W/m² 1022.5 hPa
08:54 14 °C 13 °C 94 % 2 km/h (4 km/h) 0 mm0 mm 18.3 °C 19 °C 21.7 °C 21.9 °C 20000 m 0   0 cm 6 min 87.6 W/m² 1022.5 hPa
08:48 13.6 °C 12.8 °C 95 % 2 km/h (3 km/h) 0 mm0 mm 18.4 °C 19 °C 21.7 °C 21.9 °C 20000 m 0   0 cm 6 min 78.2 W/m² 1022.4 hPa
08:42 13.3 °C 12.7 °C 96 % 2 km/h (4 km/h) 0 mm0 mm 18.4 °C 19 °C 21.7 °C 21.9 °C 20000 m 0   0 cm 3 min 54 W/m² 1022.4 hPa
08:36 13.1 °C 12.3 °C 95 % 3 km/h (4 km/h) 0 mm0 mm 18.4 °C 19 °C 21.7 °C 21.8 °C 20000 m 0   0 cm 0 min 25.1 W/m² 1022.5 hPa
08:30 13.2 °C 12.6 °C 96 % 3 km/h (4 km/h) 0 mm0 mm 18.4 °C 19 °C 21.7 °C 21.9 °C 20000 m 0   0 cm 0 min 23 W/m² 1022.3 hPa
08:24 13.2 °C 12.6 °C 96 % 2 km/h (4 km/h) 0 mm0 mm 18.4 °C 19 °C 21.7 °C 21.9 °C 20000 m 0   0 cm 0 min 25.7 W/m² 1022.3 hPa
08:18 13.2 °C 12.9 °C 98 % 3 km/h (3 km/h) 0 mm0 mm 18.4 °C 19.1 °C 21.7 °C 21.9 °C 20000 m 0   0 cm 2 min 33.6 W/m² 1022.2 hPa
08:12 12.9 °C 12.4 °C 97 % 3 km/h (4 km/h) 0 mm0 mm 18.4 °C 19.1 °C 21.7 °C 21.9 °C 20000 m 0   0 cm 6 min 33.4 W/m² 1022.3 hPa
08:06 12.9 °C 12.6 °C 98 % 3 km/h (4 km/h) 0 mm0 mm 18.5 °C 19.1 °C 21.7 °C 21.9 °C 20000 m 0   0 cm 6 min 35 W/m² 1022.3 hPa
08:00 12.8 °C 12.5 °C 98 % 3 km/h (4 km/h) 0 mm0 mm 18.5 °C 19.1 °C 21.7 °C 21.9 °C 20000 m 0   0 cm 6 min 29.3 W/m² 1022.3 hPa
07:54 12.7 °C 12.5 °C 99 % 3 km/h (4 km/h) 0 mm0 mm 18.5 °C 19.2 °C 21.7 °C 21.9 °C 20000 m 0   0 cm 6 min 21 W/m² 1022.2 hPa
07:48 12.7 °C 12.5 °C 99 % 3 km/h (4 km/h) 0 mm0 mm 18.5 °C 19.2 °C 21.7 °C 21.9 °C 20000 m 0   0 cm 6 min 17 W/m² 1022.2 hPa
07:42 12.4 °C 12.2 °C 99 % 3 km/h (4 km/h) 0 mm0 mm 18.6 °C 19.2 °C 21.8 °C 21.9 °C 20000 m 0   0 cm 6 min 13.6 W/m² 1022.2 hPa
07:36 12.3 °C 12.1 °C 99 % 4 km/h (4 km/h) 0 mm0 mm 18.6 °C 19.2 °C 21.7 °C 21.9 °C 20000 m 0   0 cm 6 min 11.2 W/m² 1022.2 hPa
07:30 12.2 °C 12 °C 99 % 4 km/h (5 km/h) 0 mm0 mm 18.6 °C 19.3 °C 21.8 °C 21.9 °C 20000 m 0   0 cm 3 min 7.1 W/m² 1022.1 hPa
07:24 12.1 °C 11.9 °C 99 % 5 km/h (6 km/h) 0 mm0 mm 18.6 °C 19.3 °C 21.8 °C 21.9 °C 20000 m 0   0 cm 0 min 0 W/m² 1022.2 hPa
07:18 11.9 °C 11.6 °C 98 % 4 km/h (6 km/h) 0 mm0 mm 18.7 °C 19.3 °C 21.8 °C 21.9 °C 20000 m 0   0 cm 0 min 0 W/m² 1022.1 hPa
07:12 11.9 °C 11.6 °C 98 % 0 km/h (4 km/h) 0 mm0 mm 18.7 °C 19.3 °C 21.8 °C 21.9 °C 20000 m 0   0 cm 0 min 0 W/m² 1022.1 hPa
07:06 11.8 °C 11.3 °C 97 % 0 km/h (3 km/h) 0 mm0 mm 18.8 °C 19.4 °C 21.8 °C 21.9 °C 20000 m 0   0 cm 0 min 0 W/m² 1022.1 hPa
07:00 11.8 °C 11.2 °C 96 % 2 km/h (3 km/h) 0 mm0 mm 18.8 °C 19.4 °C 21.8 °C 21.9 °C 20000 m 0   0 cm 0 min 0 W/m² 1022 hPa
06:54 11.9 °C 11.3 °C 96 % 2 km/h (4 km/h) 0 mm0 mm 18.8 °C 19.5 °C 21.8 °C 21.9 °C 20000 m 0   0 cm 0 min 0 W/m² 1022.1 hPa
06:48 12 °C 11.5 °C 97 % 4 km/h (5 km/h) 0 mm0 mm 18.8 °C 19.5 °C 21.8 °C 21.9 °C 20000 m 0   0 cm 0 min 0 W/m² 1022.1 hPa
06:42 12 °C 11.4 °C 96 % 3 km/h (5 km/h) 0 mm0 mm 18.9 °C 19.5 °C 21.8 °C 21.9 °C 20000 m 0   0 cm 0 min 0 W/m² 1022 hPa
06:36 12.2 °C 11.7 °C 97 % 3 km/h (5 km/h) 0 mm0 mm 18.9 °C 19.5 °C 21.8 °C 21.9 °C 20000 m 0   0 cm 0 min 0 W/m² 1021.9 hPa
06:30 12.2 °C 11.6 °C 96 % 4 km/h (5 km/h) 0 mm0 mm 18.9 °C 19.6 °C 21.8 °C 21.9 °C 20000 m 0   0 cm 0 min 0 W/m² 1021.8 hPa
06:24 12.4 °C 11.9 °C 97 % 4 km/h (5 km/h) 0 mm0 mm 19 °C 19.6 °C 21.8 °C 21.9 °C 20000 m 0   0 cm 0 min 0 W/m² 1021.8 hPa
06:18 12.5 °C 12 °C 97 % 2 km/h (5 km/h) 0 mm0 mm 19 °C 19.6 °C 21.8 °C 21.9 °C 20000 m 0   0 cm 0 min 0 W/m² 1021.8 hPa
06:12 12.3 °C 11.7 °C 96 % 0 km/h (3 km/h) 0 mm0 mm 19 °C 19.6 °C 21.8 °C 21.9 °C 20000 m 0   0 cm 0 min 0 W/m² 1021.8 hPa
06:06 12.4 °C 11.8 °C 96 % 2 km/h (3 km/h) 0 mm0 mm 19 °C 19.7 °C 21.8 °C 21.9 °C 20000 m 0   0 cm 0 min 0 W/m² 1021.8 hPa
06:00 12.4 °C 11.9 °C 97 % 2 km/h (3 km/h) 0 mm0 mm 19 °C 19.7 °C 21.8 °C 21.9 °C 20000 m 0   0 cm 0 min 0 W/m² 1021.8 hPa
05:54 12.5 °C 11.9 °C 96 % 3 km/h (4 km/h) 0 mm0 mm 19.1 °C 19.7 °C 21.8 °C 21.9 °C 20000 m 0   0 cm 0 min 0 W/m² 1021.8 hPa
05:48 12.5 °C 12 °C 97 % 4 km/h (6 km/h) 0 mm0 mm 19.1 °C 19.7 °C 21.8 °C 21.9 °C 20000 m 0   0 cm 0 min 0 W/m² 1021.8 hPa
05:42 12.6 °C 12.1 °C 97 % 6 km/h (7 km/h) 0 mm0 mm 19.1 °C 19.7 °C 21.8 °C 21.9 °C 20000 m 0   0 cm 0 min 0 W/m² 1021.9 hPa
05:36 12.5 °C 11.9 °C 96 % 5 km/h (7 km/h) 0 mm0 mm 19.2 °C 19.8 °C 21.8 °C 21.9 °C 20000 m 0   0 cm 0 min 0 W/m² 1021.9 hPa
05:30 12.5 °C 11.9 °C 96 % 2 km/h (4 km/h) 0 mm0 mm 19.2 °C 19.8 °C 21.8 °C 21.9 °C 20000 m 0   0 cm 0 min 0 W/m² 1021.8 hPa
05:24 12.7 °C 11.8 °C 94 % 4 km/h (7 km/h) 0 mm0 mm 19.3 °C 19.8 °C 21.8 °C 21.9 °C 20000 m 0   0 cm 0 min 0 W/m² 1021.8 hPa
05:18 12.9 °C 12.3 °C 96 % 4 km/h (7 km/h) 0 mm0 mm 19.3 °C 19.9 °C 21.8 °C 21.9 °C 20000 m 0   0 cm 0 min 0 W/m² 1021.9 hPa
05:12 12.9 °C 12.3 °C 96 % 2 km/h (4 km/h) 0 mm0 mm 19.3 °C 19.9 °C 21.8 °C 21.9 °C 20000 m 0   0 cm 0 min 0 W/m² 1021.9 hPa
05:06 12.8 °C 12 °C 95 % 0 km/h (2 km/h) 0 mm0 mm 19.3 °C 19.9 °C 21.8 °C 21.9 °C 20000 m 0   0 cm 0 min 0 W/m² 1021.9 hPa
05:00 13 °C 12.4 °C 96 % 0 km/h (2 km/h) 0 mm0 mm 19.4 °C 20 °C 21.8 °C 21.9 °C 20000 m 0   0 cm 0 min 0 W/m² 1021.9 hPa
04:54 13 °C 12.4 °C 96 % 0 km/h (3 km/h) 0 mm0 mm 19.4 °C 20 °C 21.8 °C 21.9 °C 20000 m 0   0 cm 0 min 0 W/m² 1021.9 hPa
04:48 13 °C 12.4 °C 96 % 2 km/h (3 km/h) 0 mm0 mm 19.4 °C 20 °C 21.9 °C 21.9 °C 20000 m 0   0 cm 0 min 0 W/m² 1021.9 hPa
04:42 12.9 °C 12.3 °C 96 % 3 km/h (4 km/h) 0 mm0 mm 19.5 °C 20 °C 21.8 °C 21.9 °C 20000 m 0   0 cm 0 min 0 W/m² 1021.9 hPa
04:36 12.8 °C 12 °C 95 % 3 km/h (4 km/h) 0 mm0 mm 19.5 °C 20.1 °C 21.8 °C 21.9 °C 20000 m 0   0 cm 0 min 0 W/m² 1021.8 hPa
04:30 12.8 °C 11.9 °C 94 % 3 km/h (3 km/h) 0 mm0 mm 19.5 °C 20.1 °C 21.9 °C 21.9 °C 20000 m 0   0 cm 0 min 0 W/m² 1021.9 hPa
04:24 13.1 °C 12 °C 93 % 3 km/h (5 km/h) 0 mm0 mm 19.6 °C 20.1 °C 21.8 °C 21.9 °C 20000 m 0   0 cm 0 min 0 W/m² 1021.7 hPa
04:18 13.3 °C 12.4 °C 94 % 4 km/h (6 km/h) 0 mm0 mm 19.6 °C 20.2 °C 21.9 °C 21.9 °C 20000 m 0   0 cm 0 min 0 W/m² 1021.8 hPa
04:12 13.4 °C 12.5 °C 94 % 5 km/h (7 km/h) 0 mm0 mm 19.6 °C 20.2 °C 21.9 °C 21.9 °C 20000 m 0   0 cm 0 min 0 W/m² 1021.7 hPa
04:06 13.4 °C 12.5 °C 94 % 4 km/h (6 km/h) 0 mm0 mm 19.7 °C 20.2 °C 21.9 °C 21.9 °C 20000 m 0   0 cm 0 min 0 W/m² 1021.6 hPa
04:00 13.4 °C 12.5 °C 94 % 3 km/h (5 km/h) 0 mm0 mm 19.7 °C 20.2 °C 21.9 °C 21.9 °C 20000 m 0   0 cm 0 min 0 W/m² 1021.7 hPa
03:54 13.4 °C 12.1 °C 92 % 2 km/h (3 km/h) 0 mm0 mm 19.7 °C 20.3 °C 21.8 °C 21.9 °C 20000 m 0   0 cm 0 min 0 W/m² 1021.6 hPa
03:48 13.4 °C 11.8 °C 90 % 0 km/h (3 km/h) 0 mm0 mm 19.8 °C 20.3 °C 21.9 °C 21.9 °C 20000 m 0   0 cm 0 min 0 W/m² 1021.7 hPa
03:42 13.6 °C 12 °C 90 % 0 km/h (3 km/h) 0 mm0 mm 19.8 °C 20.3 °C 21.8 °C 21.9 °C 20000 m 0   0 cm 0 min 0 W/m² 1021.6 hPa
03:36 13.7 °C 12.3 °C 91 % 3 km/h (4 km/h) 0 mm0 mm 19.8 °C 20.4 °C 21.8 °C 21.9 °C 20000 m 0   0 cm 0 min 0 W/m² 1021.6 hPa
03:30 13.8 °C 12.2 °C 90 % 3 km/h (4 km/h) 0 mm0 mm 19.9 °C 20.4 °C 21.8 °C 21.9 °C 20000 m 0   0 cm 0 min 0 W/m² 1021.7 hPa
03:24 14 °C 12.2 °C 89 % 3 km/h (4 km/h) 0 mm0 mm 19.9 °C 20.4 °C 21.9 °C 21.9 °C 20000 m 0   0 cm 0 min 0 W/m² 1021.7 hPa
03:18 14.1 °C 12.3 °C 89 % 3 km/h (4 km/h) 0 mm0 mm 20 °C 20.5 °C 21.8 °C 21.9 °C 20000 m 0   0 cm 0 min 0 W/m² 1021.6 hPa
03:12 14.3 °C 12.3 °C 88 % 2 km/h (3 km/h) 0 mm0 mm 20 °C 20.5 °C 21.9 °C 21.9 °C 20000 m 0   0 cm 0 min 0 W/m² 1021.6 hPa
03:06 14.5 °C 12.4 °C 87 % 0 km/h (3 km/h) 0 mm0 mm 20 °C 20.5 °C 21.9 °C 21.9 °C 20000 m 0   0 cm 0 min 0 W/m² 1021.7 hPa
03:00 14.7 °C 12.2 °C 85 % 3 km/h (5 km/h) 0 mm0 mm 20 °C 20.5 °C 21.8 °C 21.9 °C 20000 m 0   0 cm 0 min 0 W/m² 1021.5 hPa
02:54 14.8 °C 12.5 °C 86 % 5 km/h (7 km/h) 0 mm0 mm 20 °C 20.6 °C 21.8 °C 21.9 °C 20000 m 0   0 cm 0 min 0 W/m² 1021.5 hPa
02:48 14.8 °C 12.7 °C 87 % 5 km/h (7 km/h) 0 mm0 mm 20.1 °C 20.6 °C 21.9 °C 21.9 °C 20000 m 0   0 cm 0 min 0 W/m² 1021.5 hPa
02:42 14.5 °C 12.7 °C 89 % 5 km/h (7 km/h) 0 mm0 mm 20.1 °C 20.7 °C 21.9 °C 21.9 °C 20000 m 0   0 cm 0 min 0 W/m² 1021.6 hPa
02:36 14.1 °C 12.3 °C 89 % 6 km/h (7 km/h) 0 mm0 mm 20.1 °C 20.7 °C 21.8 °C 21.9 °C 20000 m 0   0 cm 0 min 0 W/m² 1021.7 hPa
02:30 14.2 °C 12.6 °C 90 % 5 km/h (6 km/h) 0 mm0 mm 20.2 °C 20.7 °C 21.8 °C 21.9 °C 20000 m 0   0 cm 0 min 0 W/m² 1021.6 hPa
02:24 14.3 °C 12.7 °C 90 % 5 km/h (6 km/h) 0 mm0 mm 20.2 °C 20.7 °C 21.8 °C 21.9 °C 20000 m 0   0 cm 0 min 0 W/m² 1021.6 hPa
02:18 14.7 °C 12.6 °C 87 % 3 km/h (6 km/h) 0 mm0 mm 20.2 °C 20.7 °C 21.8 °C 21.9 °C 20000 m 0   0 cm 0 min 0 W/m² 1021.5 hPa
02:12 14.8 °C 12.7 °C 87 % 0 km/h (2 km/h) 0 mm0 mm 20.3 °C 20.8 °C 21.8 °C 21.9 °C 20000 m 0   0 cm 0 min 0 W/m² 1021.5 hPa
02:06 15.1 °C 12.8 °C 86 % 0 km/h (2 km/h) 0 mm0 mm 20.3 °C 20.8 °C 21.8 °C 21.9 °C 20000 m 0   0 cm 0 min 0 W/m² 1021.5 hPa
02:00 15.1 °C 12.2 °C 83 % 3 km/h (4 km/h) 0 mm0 mm 20.4 °C 20.8 °C 21.8 °C 21.9 °C 20000 m 0   0 cm 0 min 0 W/m² 1021.5 hPa
01:54 15.3 °C 12.4 °C 83 % 3 km/h (5 km/h) 0 mm0 mm 20.4 °C 20.9 °C 21.9 °C 21.9 °C 20000 m 0   0 cm 0 min 0 W/m² 1021.5 hPa
01:48 15.3 °C 12.6 °C 84 % 4 km/h (5 km/h) 0 mm0 mm 20.4 °C 20.9 °C 21.8 °C 21.9 °C 20000 m 0   0 cm 0 min 0 W/m² 1021.6 hPa
01:42 15.4 °C 12.3 °C 82 % 4 km/h (5 km/h) 0 mm0 mm 20.5 °C 20.9 °C 21.8 °C 21.9 °C 20000 m 0   0 cm 0 min 0 W/m² 1021.6 hPa
01:36 15.5 °C 12.3 °C 81 % 4 km/h (6 km/h) 0 mm0 mm 20.5 °C 21 °C 21.9 °C 21.9 °C 20000 m 0   0 cm 0 min 0 W/m² 1021.6 hPa
01:30 15.6 °C 12.7 °C 83 % 6 km/h (8 km/h) 0 mm0 mm 20.5 °C 21 °C 21.9 °C 21.9 °C 20000 m 0   0 cm 0 min 0 W/m² 1021.6 hPa
01:24 15.7 °C 12.3 °C 80 % 6 km/h (8 km/h) 0 mm0 mm 20.6 °C 21 °C 21.8 °C 21.9 °C 20000 m 0   0 cm 0 min 0 W/m² 1021.5 hPa
01:18 15.5 °C 12.3 °C 81 % 4 km/h (7 km/h) 0 mm0 mm 20.6 °C 21 °C 21.9 °C 21.9 °C 20000 m 0   0 cm 0 min 0 W/m² 1021.6 hPa
01:12 15.7 °C 12.6 °C 82 % 4 km/h (5 km/h) 0 mm0 mm 20.6 °C 21.1 °C 21.9 °C 21.9 °C 20000 m 0   0 cm 0 min 0 W/m² 1021.6 hPa
01:06 16.1 °C 12.6 °C 80 % 4 km/h (5 km/h) 0 mm0 mm 20.7 °C 21.1 °C 21.8 °C 21.9 °C 20000 m 0   0 cm 0 min 0 W/m² 1021.6 hPa
01:00 16.2 °C 12.4 °C 78 % 4 km/h (5 km/h) 0 mm0 mm 20.7 °C 21.2 °C 21.8 °C 21.9 °C 20000 m 0   0 cm 0 min 0 W/m² 1021.5 hPa
00:54 16.3 °C 12.3 °C 77 % 4 km/h (5 km/h) 0 mm0 mm 20.7 °C 21.2 °C 21.8 °C 21.9 °C 20000 m 0   0 cm 0 min 0 W/m² 1021.5 hPa
00:48 16.4 °C 12.2 °C 76 % 4 km/h (4 km/h) 0 mm0 mm 20.8 °C 21.2 °C 21.8 °C 21.9 °C 20000 m 0   0 cm 0 min 0 W/m² 1021.4 hPa
00:42 16.3 °C 12.1 °C 76 % 4 km/h (5 km/h) 0 mm0 mm 20.8 °C 21.2 °C 21.8 °C 21.9 °C 20000 m 0   0 cm 0 min 0 W/m² 1021.4 hPa
00:36 16.7 °C 12.2 °C 75 % 4 km/h (5 km/h) 0 mm0 mm 20.8 °C 21.2 °C 21.8 °C 21.9 °C 20000 m 0   0 cm 0 min 0 W/m² 1021.4 hPa
00:30 16.5 °C 12.3 °C 76 % 4 km/h (5 km/h) 0 mm0 mm 20.9 °C 21.3 °C 21.8 °C 21.9 °C 20000 m 0   0 cm 0 min 0 W/m² 1021.4 hPa
00:24 16.5 °C 12.5 °C 77 % 4 km/h (4 km/h) 0 mm0 mm 20.9 °C 21.3 °C 21.8 °C 21.9 °C 20000 m 0   0 cm 0 min 0 W/m² 1021.4 hPa
00:18 16.5 °C 12.5 °C 77 % 4 km/h (4 km/h) 0 mm0 mm 20.9 °C 21.3 °C 21.8 °C 21.9 °C 20000 m 0   0 cm 0 min 0 W/m² 1021.3 hPa
00:12 16.4 °C 12.4 °C 77 % 4 km/h (5 km/h) 0 mm0 mm 21 °C 21.4 °C 21.8 °C 21.9 °C 20000 m 0   0 cm 0 min 0 W/m² 1021.3 hPa
00:06 16.3 °C 12.6 °C 79 % 4 km/h (5 km/h) 0 mm0 mm 21 °C 21.4 °C 21.8 °C 21.9 °C 20000 m 0   0 cm 0 min 0 W/m² 1021.4 hPa
00:00 16.5 °C 13 °C 80 % 3 km/h (5 km/h) 0 mm0 mm 21 °C 21.4 °C 21.8 °C 21.9 °C 20000 m 0   0 cm 0 min 0 W/m² 1021.4 hPa

Données via Météo-France

Relevés météo à Auxerre-Perrigny

Cette page rassemble les observations de la station de Auxerre-Perrigny : température, humidité, vent, précipitations et pression atmosphérique. Les graphiques facilitent le suivi de la journée, tandis que le tableau donne accès aux mesures horaires et infra-horaires disponibles.

Pour replacer ces mesures dans leur contexte, consultez la climatologie de Auxerre-Perrigny. Retrouvez aussi la carte des observations météo en temps réel.